createdAt,value
2019-05-18T00:01:26.179Z,78.90
2019-05-18T00:03:55.126Z,79.14
2019-05-18T00:06:24.685Z,79.36
2019-05-18T00:08:53.397Z,79.08
2019-05-18T00:11:22.084Z,79.23
2019-05-18T00:13:51.034Z,79.15
2019-05-18T00:16:19.796Z,79.22
2019-05-18T00:18:48.488Z,79.14
2019-05-18T00:21:17.166Z,79.38
2019-05-18T00:23:45.880Z,79.43
2019-05-18T00:26:14.572Z,79.52
2019-05-18T00:28:43.543Z,79.33
2019-05-18T00:31:12.521Z,79.60
2019-05-18T00:33:41.482Z,79.42
2019-05-18T00:36:10.189Z,79.34
2019-05-18T00:38:38.887Z,78.85
2019-05-18T00:41:07.574Z,78.73
2019-05-18T00:43:36.340Z,78.46
2019-05-18T00:46:05.597Z,79.01
2019-05-18T00:48:34.315Z,79.09
2019-05-18T00:51:03.032Z,78.81
2019-05-18T00:53:31.868Z,79.16
2019-05-18T00:56:00.576Z,79.18
2019-05-18T00:58:29.524Z,79.26
2019-05-18T01:00:58.224Z,79.25
2019-05-18T01:03:27.422Z,79.17
2019-05-18T01:05:56.429Z,79.51
2019-05-18T01:08:25.978Z,79.88
2019-05-18T01:10:57.492Z,79.82
2019-05-18T01:13:28.906Z,80.07
2019-05-18T01:15:57.855Z,80.30
2019-05-18T01:18:26.790Z,80.40
2019-05-18T01:20:55.492Z,80.01
2019-05-18T01:23:24.427Z,79.96
2019-05-18T01:25:53.368Z,80.17
2019-05-18T01:28:22.070Z,80.29
2019-05-18T01:30:50.937Z,80.10
2019-05-18T01:33:19.685Z,79.59
2019-05-18T01:35:48.376Z,79.66
2019-05-18T01:38:17.572Z,79.98
2019-05-18T01:40:46.264Z,79.66
2019-05-18T01:43:15.197Z,80.08
2019-05-18T01:45:43.920Z,80.25
2019-05-18T01:48:14.530Z,80.37
2019-05-18T01:50:43.547Z,80.36
2019-05-18T01:53:12.302Z,80.50
2019-05-18T01:55:41.233Z,80.33
2019-05-18T01:58:10.147Z,80.55
2019-05-18T02:00:38.834Z,80.71
2019-05-18T02:03:07.587Z,80.54
2019-05-18T02:05:36.522Z,80.39
2019-05-18T02:08:05.517Z,80.80
2019-05-18T02:10:34.235Z,80.65
2019-05-18T02:13:03.048Z,80.48
2019-05-18T02:15:32.320Z,80.69
2019-05-18T02:18:01.242Z,80.75
2019-05-18T02:20:29.967Z,80.60
2019-05-18T02:22:58.894Z,80.74
2019-05-18T02:25:27.845Z,80.44
2019-05-18T02:27:56.773Z,81.10
2019-05-18T02:30:26.004Z,81.50
2019-05-18T02:32:54.924Z,81.67
2019-05-18T02:35:23.611Z,81.75
2019-05-18T02:37:54.192Z,81.88
2019-05-18T02:40:22.882Z,81.61
2019-05-18T02:42:51.872Z,81.09
2019-05-18T02:45:20.961Z,80.95
2019-05-18T02:47:49.896Z,81.65
2019-05-18T02:50:18.732Z,81.53
2019-05-18T02:52:47.633Z,80.74
2019-05-18T02:55:16.459Z,80.64
2019-05-18T02:57:45.370Z,81.22
2019-05-18T03:00:17.346Z,81.20
2019-05-18T03:02:46.045Z,80.94
2019-05-18T03:05:15.131Z,80.63
2019-05-18T03:07:44.302Z,80.91
2019-05-18T03:10:13.079Z,80.48
2019-05-18T03:12:41.827Z,80.88
2019-05-18T03:15:10.921Z,81.25
2019-05-18T03:17:39.944Z,80.71
2019-05-18T03:20:09.147Z,81.11
2019-05-18T03:22:37.977Z,81.35
2019-05-18T03:25:06.920Z,80.87
2019-05-18T03:27:35.924Z,80.29
2019-05-18T03:30:05.069Z,81.53
2019-05-18T03:32:34.027Z,81.39
2019-05-18T03:35:02.944Z,81.54
2019-05-18T03:37:31.627Z,81.09
2019-05-18T03:40:00.401Z,81.07
2019-05-18T03:42:29.145Z,81.44
2019-05-18T03:44:58.176Z,81.59
2019-05-18T03:47:29.652Z,81.89
2019-05-18T03:49:58.353Z,81.97
2019-05-18T03:52:27.277Z,81.16
2019-05-18T03:54:56.211Z,80.79
2019-05-18T03:57:27.643Z,81.24
2019-05-18T03:59:56.371Z,81.29
2019-05-18T04:02:26.204Z,81.64
2019-05-18T04:04:55.139Z,82.10
2019-05-18T04:07:24.412Z,82.10
2019-05-18T04:09:53.093Z,82.20
2019-05-18T04:12:22.032Z,82.08
2019-05-18T04:14:52.303Z,81.49
2019-05-18T04:17:21.422Z,81.49
2019-05-18T04:19:50.460Z,82.21
2019-05-18T04:22:19.403Z,82.07
2019-05-18T04:24:48.095Z,82.16
2019-05-18T04:27:17.518Z,81.85
2019-05-18T04:29:46.688Z,81.29
2019-05-18T04:32:15.850Z,81.45
2019-05-18T04:34:44.563Z,81.97
2019-05-18T04:37:13.525Z,82.09
2019-05-18T04:39:42.205Z,82.39
2019-05-18T04:42:10.898Z,82.37
2019-05-18T04:44:40.063Z,82.49
2019-05-18T04:47:09.005Z,82.91
2019-05-18T04:49:38.178Z,82.96
2019-05-18T04:52:06.950Z,82.92
2019-05-18T04:54:35.628Z,82.84
2019-05-18T04:57:04.568Z,82.92
2019-05-18T04:59:33.250Z,82.98
2019-05-18T05:02:01.943Z,83.14
2019-05-18T05:04:30.852Z,83.02
2019-05-18T05:06:59.768Z,82.94
2019-05-18T05:09:28.477Z,83.20
2019-05-18T05:11:57.638Z,83.20
2019-05-18T05:14:26.340Z,83.36
2019-05-18T05:16:55.280Z,83.40
2019-05-18T05:19:24.469Z,83.30
2019-05-18T05:21:53.884Z,82.99
2019-05-18T05:24:22.615Z,81.93
2019-05-18T05:26:51.341Z,81.99
2019-05-18T05:29:20.323Z,81.85
2019-05-18T05:31:49.480Z,81.24
2019-05-18T05:34:18.421Z,81.24
2019-05-18T05:36:47.352Z,79.99
2019-05-18T05:39:16.543Z,79.68
2019-05-18T05:41:45.224Z,78.79
2019-05-18T05:44:14.269Z,79.11
2019-05-18T05:46:43.442Z,79.51
2019-05-18T05:49:12.135Z,79.46
2019-05-18T05:51:41.051Z,78.77
2019-05-18T05:54:09.752Z,77.51
2019-05-18T05:56:38.702Z,77.28
2019-05-18T05:59:07.646Z,76.65
2019-05-18T06:01:36.318Z,76.29
2019-05-18T06:04:05.154Z,76.08
2019-05-18T06:06:34.645Z,75.27
2019-05-18T06:09:05.317Z,75.02
2019-05-18T06:11:34.247Z,75.23
2019-05-18T06:14:03.704Z,74.78
2019-05-18T06:16:32.390Z,74.03
2019-05-18T06:19:01.123Z,75.04
2019-05-18T06:21:30.052Z,74.05
2019-05-18T06:23:58.982Z,73.73
2019-05-18T06:26:27.658Z,74.52
2019-05-18T06:28:56.337Z,74.73
2019-05-18T06:31:25.021Z,72.92
2019-05-18T06:33:53.935Z,72.27
2019-05-18T06:36:22.702Z,72.86
2019-05-18T06:38:51.393Z,73.71
2019-05-18T06:41:20.207Z,73.79
2019-05-18T06:43:48.890Z,73.97
2019-05-18T06:46:17.611Z,73.17
2019-05-18T06:48:46.340Z,72.91
2019-05-18T06:51:15.102Z,73.28
2019-05-18T06:53:47.220Z,73.23
2019-05-18T06:56:16.897Z,73.25
2019-05-18T06:58:47.051Z,73.30
2019-05-18T07:01:15.741Z,72.71
2019-05-18T07:03:45.189Z,73.43
2019-05-18T07:06:14.319Z,74.04
2019-05-18T07:08:43.056Z,73.59
2019-05-18T07:11:12.188Z,70.74
2019-05-18T07:13:40.895Z,72.03
2019-05-18T07:16:09.831Z,72.92
2019-05-18T07:18:38.793Z,72.14
2019-05-18T07:21:21.360Z,70.78
2019-05-18T07:23:38.198Z,69.50
2019-05-18T07:26:07.148Z,68.96
2019-05-18T07:28:36.096Z,68.31
2019-05-18T07:31:04.930Z,70.06
2019-05-18T07:33:33.886Z,70.22
2019-05-18T07:36:02.814Z,67.08
2019-05-18T07:38:31.504Z,66.97
2019-05-18T07:41:00.452Z,68.83
2019-05-18T07:43:30.765Z,69.51
2019-05-18T07:45:59.470Z,70.04
2019-05-18T07:48:28.202Z,69.37
2019-05-18T07:50:57.395Z,70.59
2019-05-18T07:53:26.084Z,69.42
2019-05-18T07:55:55.031Z,66.03
2019-05-18T07:58:23.991Z,67.41
2019-05-18T08:00:52.693Z,66.61
2019-05-18T08:03:21.370Z,68.24
2019-05-18T08:05:50.137Z,68.59
2019-05-18T08:08:19.216Z,66.39
2019-05-18T08:10:47.904Z,68.09
2019-05-18T08:13:16.614Z,65.49
2019-05-18T08:15:45.330Z,66.08
2019-05-18T08:18:14.565Z,62.47
2019-05-18T08:20:46.091Z,62.50
2019-05-18T08:23:14.769Z,65.53
2019-05-18T08:25:43.529Z,64.28
2019-05-18T08:28:12.325Z,66.24
2019-05-18T08:30:41.248Z,65.30
2019-05-18T08:33:10.891Z,64.62
2019-05-18T08:35:40.313Z,61.69
2019-05-18T08:38:09.081Z,61.70
2019-05-18T08:40:39.572Z,65.00
2019-05-18T08:43:09.157Z,61.74
2019-05-18T08:45:38.005Z,62.63
2019-05-18T08:48:06.924Z,60.54
2019-05-18T08:50:35.615Z,60.33
2019-05-18T08:53:06.862Z,55.52
2019-05-18T08:55:36.449Z,54.20
2019-05-18T08:58:05.238Z,56.85
2019-05-18T09:00:34.383Z,56.53
2019-05-18T09:03:03.069Z,57.52
2019-05-18T09:05:32.267Z,58.64
2019-05-18T09:08:01.127Z,58.61
2019-05-18T09:10:29.825Z,56.03
2019-05-18T09:12:58.529Z,54.85
2019-05-18T09:15:27.215Z,55.98
2019-05-18T09:17:55.925Z,52.69
2019-05-18T09:20:24.896Z,51.80
2019-05-18T09:22:54.259Z,52.63
2019-05-18T09:25:23.222Z,55.08
2019-05-18T09:27:52.350Z,54.72
2019-05-18T09:30:21.278Z,55.68
2019-05-18T09:32:51.264Z,55.27
2019-05-18T09:35:20.203Z,57.63
2019-05-18T09:37:49.587Z,55.00
2019-05-18T09:40:18.919Z,54.63
2019-05-18T09:42:47.828Z,52.61
2019-05-18T09:45:17.281Z,53.22
2019-05-18T09:47:46.151Z,50.93
2019-05-18T09:50:17.431Z,54.47
2019-05-18T09:52:46.703Z,54.21
2019-05-18T09:55:15.791Z,54.95
2019-05-18T09:57:44.498Z,54.06
2019-05-18T10:00:14.207Z,55.46
2019-05-18T10:03:03.464Z,51.64
2019-05-18T10:05:32.824Z,52.65
2019-05-18T10:08:01.854Z,52.91
2019-05-18T10:10:33.665Z,53.36
2019-05-18T10:13:01.740Z,53.65
2019-05-18T10:15:30.659Z,51.52
2019-05-18T10:18:00.764Z,50.72
2019-05-18T10:20:41.309Z,49.55
2019-05-18T10:23:13.698Z,47.55
2019-05-18T10:25:41.626Z,49.48
2019-05-18T10:28:11.712Z,51.19
2019-05-18T10:30:40.654Z,50.82
2019-05-18T10:33:09.772Z,54.34
2019-05-18T10:35:46.602Z,48.15
2019-05-18T10:38:16.469Z,47.52
2019-05-18T10:40:45.127Z,48.00
2019-05-18T10:43:13.970Z,45.66
2019-05-18T10:45:45.064Z,46.89
2019-05-18T10:48:13.604Z,44.75
2019-05-18T10:50:43.377Z,47.58
2019-05-18T10:53:27.507Z,45.39
2019-05-18T10:55:42.542Z,42.83
2019-05-18T10:58:12.004Z,46.95
2019-05-18T11:00:40.699Z,46.24
2019-05-18T11:03:09.457Z,46.60
2019-05-18T11:05:38.127Z,47.17
2019-05-18T11:08:07.096Z,46.42
2019-05-18T11:10:35.773Z,46.31
2019-05-18T11:13:04.792Z,47.80
2019-05-18T11:15:33.820Z,48.37
2019-05-18T11:18:02.791Z,43.25
2019-05-18T11:20:31.605Z,45.62
2019-05-18T11:23:00.561Z,44.21
2019-05-18T11:25:29.245Z,46.89
2019-05-18T11:27:57.930Z,45.56
2019-05-18T11:30:26.842Z,47.03
2019-05-18T11:32:55.632Z,45.79
2019-05-18T11:35:24.710Z,46.43
2019-05-18T11:37:53.406Z,43.48
2019-05-18T11:40:22.273Z,43.44
2019-05-18T11:42:50.979Z,42.09
2019-05-18T11:45:20.615Z,44.86
2019-05-18T11:47:49.366Z,42.64
2019-05-18T11:50:18.669Z,41.40
2019-05-18T11:52:47.421Z,45.21
2019-05-18T11:55:18.415Z,41.58
2019-05-18T11:57:47.116Z,40.78
2019-05-18T12:00:16.889Z,42.04
2019-05-18T12:02:45.644Z,43.25
2019-05-18T12:05:14.657Z,42.53
2019-05-18T12:07:43.638Z,44.95
2019-05-18T12:10:12.933Z,42.10
2019-05-18T12:12:41.623Z,42.55
2019-05-18T12:15:11.050Z,41.60
2019-05-18T12:17:40.113Z,43.40
2019-05-18T12:20:09.464Z,43.28
2019-05-18T12:22:38.529Z,43.96
2019-05-18T12:25:07.296Z,42.44
2019-05-18T12:27:36.106Z,44.11
2019-05-18T12:30:05.483Z,38.58
2019-05-18T12:32:37.416Z,40.87
2019-05-18T12:35:06.632Z,43.50
2019-05-18T12:37:37.366Z,42.45
2019-05-18T12:40:06.861Z,39.65
2019-05-18T12:42:35.850Z,41.33
2019-05-18T12:45:08.349Z,41.34
2019-05-18T12:47:39.524Z,43.03
2019-05-18T12:50:10.469Z,42.08
2019-05-18T12:52:39.161Z,38.85
2019-05-18T12:55:08.685Z,39.54
2019-05-18T12:57:37.783Z,44.76
2019-05-18T13:00:08.241Z,44.06
2019-05-18T13:02:36.906Z,43.63
2019-05-18T13:05:07.223Z,42.62
2019-05-18T13:07:36.063Z,43.55
2019-05-18T13:10:05.467Z,42.67
2019-05-18T13:12:34.145Z,41.95
2019-05-18T13:15:03.242Z,40.96
2019-05-18T13:17:31.922Z,44.13
2019-05-18T13:20:00.739Z,43.88
2019-05-18T13:22:29.368Z,46.48
2019-05-18T13:24:58.301Z,42.38
2019-05-18T13:27:38.767Z,40.99
2019-05-18T13:29:59.333Z,39.13
2019-05-18T13:32:28.243Z,38.59
2019-05-18T13:34:57.443Z,38.50
2019-05-18T13:37:26.122Z,39.09
2019-05-18T13:39:54.809Z,40.81
2019-05-18T13:42:23.478Z,39.00
2019-05-18T13:44:52.430Z,37.98
2019-05-18T13:47:21.116Z,41.54
2019-05-18T13:49:49.827Z,38.75
2019-05-18T13:52:18.740Z,37.02
2019-05-18T13:55:02.242Z,38.88
2019-05-18T13:57:18.144Z,40.37
2019-05-18T13:59:47.418Z,37.25
2019-05-18T14:02:16.158Z,37.91
2019-05-18T14:04:44.858Z,39.83
2019-05-18T14:07:13.854Z,36.95
2019-05-18T14:09:42.791Z,36.50
2019-05-18T14:12:11.705Z,36.76
2019-05-18T14:14:40.406Z,37.94
2019-05-18T14:17:09.084Z,38.53
2019-05-18T14:19:38.024Z,36.63
2019-05-18T14:22:06.933Z,37.82
2019-05-18T14:24:35.875Z,40.38
2019-05-18T14:27:04.631Z,38.02
2019-05-18T14:29:33.328Z,38.11
2019-05-18T14:32:02.242Z,39.52
2019-05-18T14:34:31.200Z,40.08
2019-05-18T14:37:00.133Z,41.24
2019-05-18T14:39:28.894Z,43.31
2019-05-18T14:41:57.818Z,39.57
2019-05-18T14:44:26.779Z,37.59
2019-05-18T14:46:55.993Z,39.43
2019-05-18T14:49:25.245Z,39.79
2019-05-18T14:51:54.321Z,45.44
2019-05-18T14:54:25.519Z,43.35
2019-05-18T14:56:54.827Z,40.09
2019-05-18T14:59:23.805Z,39.52
2019-05-18T15:01:52.923Z,42.60
2019-05-18T15:04:21.713Z,41.66
2019-05-18T15:06:50.707Z,40.56
2019-05-18T15:09:19.425Z,38.67
2019-05-18T15:11:48.112Z,37.71
2019-05-18T15:14:17.033Z,37.35
2019-05-18T15:16:45.973Z,37.86
2019-05-18T15:19:14.930Z,40.30
2019-05-18T15:21:46.048Z,39.00
2019-05-18T15:24:15.464Z,37.67
2019-05-18T15:26:44.397Z,37.14
2019-05-18T15:29:13.356Z,37.93
2019-05-18T15:31:42.059Z,39.77
2019-05-18T15:34:11.087Z,39.28
2019-05-18T15:36:39.811Z,40.26
2019-05-18T15:39:11.117Z,40.20
2019-05-18T15:41:39.807Z,38.93
2019-05-18T15:44:08.455Z,39.44
2019-05-18T15:46:37.910Z,37.69
2019-05-18T15:49:06.659Z,38.70
2019-05-18T15:51:35.395Z,37.36
2019-05-18T15:54:04.087Z,38.94
2019-05-18T15:56:32.771Z,37.85
2019-05-18T15:59:01.529Z,40.76
2019-05-18T16:01:30.311Z,38.30
2019-05-18T16:03:58.975Z,41.74
2019-05-18T16:06:27.908Z,39.09
2019-05-18T16:08:56.659Z,38.43
2019-05-18T16:11:25.430Z,37.26
2019-05-18T16:13:54.472Z,38.86
2019-05-18T16:16:23.157Z,39.35
2019-05-18T16:18:52.093Z,41.90
2019-05-18T16:21:20.791Z,39.58
2019-05-18T16:23:49.980Z,39.10
2019-05-18T16:26:21.505Z,42.53
2019-05-18T16:28:49.328Z,41.58
2019-05-18T16:31:18.015Z,38.79
2019-05-18T16:33:46.705Z,39.34
2019-05-18T16:36:15.381Z,40.80
2019-05-18T16:38:44.070Z,41.28
2019-05-18T16:41:13.010Z,42.59
2019-05-18T16:43:41.957Z,42.78
2019-05-18T16:46:10.923Z,44.00
2019-05-18T16:48:39.706Z,42.59
2019-05-18T16:51:10.191Z,42.82
2019-05-18T16:53:38.862Z,43.28
2019-05-18T16:56:07.637Z,43.72
2019-05-18T16:58:36.307Z,46.65
2019-05-18T17:01:05.335Z,43.25
2019-05-18T17:03:34.140Z,45.72
2019-05-18T17:06:03.111Z,45.48
2019-05-18T17:08:31.798Z,44.41
2019-05-18T17:11:00.469Z,45.59
2019-05-18T17:13:29.146Z,47.41
2019-05-18T17:15:57.830Z,45.81
2019-05-18T17:18:26.763Z,45.85
2019-05-18T17:20:55.879Z,46.52
2019-05-18T17:23:24.581Z,46.28
2019-05-18T17:25:53.596Z,47.45
2019-05-18T17:28:22.600Z,46.28
2019-05-18T17:30:51.303Z,46.79
2019-05-18T17:33:20.047Z,46.73
2019-05-18T17:35:59.823Z,47.12
2019-05-18T17:38:19.244Z,48.06
2019-05-18T17:40:48.191Z,46.56
2019-05-18T17:43:17.153Z,47.74
2019-05-18T17:45:48.185Z,47.41
2019-05-18T17:48:16.852Z,47.38
2019-05-18T17:50:45.817Z,49.17
2019-05-18T17:53:14.753Z,48.98
2019-05-18T17:55:43.698Z,49.30
2019-05-18T17:58:12.436Z,49.16
2019-05-18T18:00:41.389Z,49.61
2019-05-18T18:03:10.309Z,49.85
2019-05-18T18:05:39.254Z,50.00
2019-05-18T18:08:08.184Z,49.26
2019-05-18T18:10:37.104Z,50.57
2019-05-18T18:13:09.240Z,51.02
2019-05-18T18:15:36.595Z,50.48
2019-05-18T18:18:05.396Z,49.59
2019-05-18T18:20:34.086Z,49.94
2019-05-18T18:23:02.787Z,50.56
2019-05-18T18:25:31.741Z,51.07
2019-05-18T18:28:00.430Z,50.79
2019-05-18T18:30:29.184Z,51.11
2019-05-18T18:32:57.893Z,52.22
2019-05-18T18:35:26.825Z,52.53
2019-05-18T18:37:55.761Z,52.39
2019-05-18T18:40:24.523Z,53.19
2019-05-18T18:42:53.462Z,52.69
2019-05-18T18:45:22.293Z,53.60
2019-05-18T18:47:50.983Z,54.54
2019-05-18T18:50:19.749Z,54.31
2019-05-18T18:52:48.763Z,54.89
2019-05-18T18:55:17.535Z,55.15
2019-05-18T18:57:46.215Z,54.97
2019-05-18T19:00:15.398Z,55.54
2019-05-18T19:02:44.069Z,55.92
2019-05-18T19:05:13.154Z,55.87
2019-05-18T19:07:41.865Z,55.83
2019-05-18T19:10:11.003Z,56.38
2019-05-18T19:12:39.774Z,57.37
2019-05-18T19:15:10.277Z,57.27
2019-05-18T19:17:39.423Z,57.25
2019-05-18T19:20:08.540Z,57.27
2019-05-18T19:22:37.230Z,57.41
2019-05-18T19:25:06.447Z,57.80
2019-05-18T19:27:35.244Z,58.03
2019-05-18T19:30:09.352Z,58.24
2019-05-18T19:32:35.316Z,58.70
2019-05-18T19:35:03.985Z,59.73
2019-05-18T19:37:32.770Z,59.69
2019-05-18T19:40:01.453Z,59.53
2019-05-18T19:42:30.288Z,59.85
2019-05-18T19:44:59.067Z,59.83
2019-05-18T19:47:27.844Z,59.71
2019-05-18T19:49:56.836Z,59.55
2019-05-18T19:52:26.094Z,58.87
2019-05-18T19:54:54.771Z,59.51
2019-05-18T19:57:23.457Z,59.38
2019-05-18T19:59:52.377Z,59.61
2019-05-18T20:02:21.089Z,60.10
2019-05-18T20:05:06.429Z,59.77
2019-05-18T20:07:20.159Z,59.90
2019-05-18T20:09:49.083Z,59.73
2019-05-18T20:12:18.040Z,59.61
2019-05-18T20:14:46.935Z,58.67
2019-05-18T20:17:15.663Z,58.33
2019-05-18T20:19:44.366Z,58.48
2019-05-18T20:22:13.075Z,58.51
2019-05-18T20:24:41.744Z,58.79
2019-05-18T20:27:10.486Z,59.38
2019-05-18T20:29:39.180Z,60.74
2019-05-18T20:32:07.859Z,60.90
2019-05-18T20:34:36.887Z,61.04
2019-05-18T20:37:05.832Z,61.33
2019-05-18T20:39:34.809Z,59.99
2019-05-18T20:42:03.482Z,59.47
2019-05-18T20:44:32.688Z,59.31
2019-05-18T20:47:01.370Z,59.50
2019-05-18T20:49:30.055Z,60.05
2019-05-18T20:51:58.752Z,60.75
2019-05-18T20:54:27.718Z,61.46
2019-05-18T20:56:56.669Z,61.92
2019-05-18T20:59:25.868Z,61.94
2019-05-18T21:01:54.573Z,61.72
2019-05-18T21:04:23.331Z,61.58
2019-05-18T21:06:52.343Z,61.55
2019-05-18T21:09:21.056Z,61.53
2019-05-18T21:11:49.830Z,61.34
2019-05-18T21:14:18.840Z,61.08
2019-05-18T21:16:47.520Z,61.09
2019-05-18T21:19:16.216Z,61.18
2019-05-18T21:21:44.908Z,61.30
2019-05-18T21:24:13.597Z,61.28
2019-05-18T21:26:43.128Z,61.02
2019-05-18T21:29:12.242Z,60.88
2019-05-18T21:31:40.930Z,60.72
2019-05-18T21:34:11.940Z,60.66
2019-05-18T21:36:40.715Z,60.56
2019-05-18T21:39:09.791Z,60.14
2019-05-18T21:41:40.418Z,60.33
2019-05-18T21:44:09.233Z,60.23
2019-05-18T21:46:39.150Z,59.92
2019-05-18T21:49:08.408Z,59.88
2019-05-18T21:51:37.414Z,59.88
2019-05-18T21:54:06.365Z,60.09
2019-05-18T21:56:35.403Z,60.39
2019-05-18T21:59:11.672Z,60.51
2019-05-18T22:01:35.032Z,60.61
2019-05-18T22:04:03.722Z,60.98
2019-05-18T22:06:32.414Z,61.77
2019-05-18T22:09:01.138Z,62.22
2019-05-18T22:11:29.896Z,61.73
2019-05-18T22:13:58.844Z,61.48
2019-05-18T22:16:27.566Z,61.80
2019-05-18T22:18:56.768Z,61.71
2019-05-18T22:21:25.433Z,61.62
2019-05-18T22:23:54.235Z,61.28
2019-05-18T22:26:22.869Z,61.36
2019-05-18T22:28:52.043Z,61.33
2019-05-18T22:31:20.723Z,61.06
2019-05-18T22:33:49.486Z,61.03
2019-05-18T22:36:18.254Z,61.27
2019-05-18T22:38:46.925Z,61.28
2019-05-18T22:41:15.852Z,61.19
2019-05-18T22:43:44.607Z,62.82
2019-05-18T22:46:13.628Z,63.21
2019-05-18T22:48:43.253Z,63.36
2019-05-18T22:51:14.594Z,63.38
2019-05-18T22:53:46.489Z,63.45
2019-05-18T22:56:14.252Z,63.43
2019-05-18T22:58:42.924Z,63.11
2019-05-18T23:01:11.692Z,62.49
2019-05-18T23:03:40.372Z,62.80
2019-05-18T23:06:09.426Z,63.27
2019-05-18T23:08:38.374Z,63.69
2019-05-18T23:11:07.146Z,64.03
2019-05-18T23:13:35.840Z,64.27
2019-05-18T23:16:04.862Z,64.80
2019-05-18T23:18:33.631Z,64.96
2019-05-18T23:21:04.613Z,65.16
2019-05-18T23:23:36.120Z,65.17
2019-05-18T23:26:05.399Z,65.13
2019-05-18T23:28:34.342Z,65.51
2019-05-18T23:31:03.040Z,65.62
2019-05-18T23:33:31.981Z,65.96
2019-05-18T23:36:00.692Z,66.00
2019-05-18T23:38:29.742Z,65.93
2019-05-18T23:40:58.452Z,65.98
2019-05-18T23:43:27.391Z,66.04
2019-05-18T23:45:56.773Z,66.16
2019-05-18T23:48:27.606Z,66.44
2019-05-18T23:50:57.129Z,67.26
2019-05-18T23:53:25.875Z,67.45
2019-05-18T23:55:54.568Z,67.51
2019-05-18T23:58:23.236Z,67.37
